createdAt,value
2018-09-29T00:03:50.065Z,66.96
2018-09-29T00:08:44.698Z,67.46
2018-09-29T00:13:39.271Z,66.72
2018-09-29T00:18:33.761Z,67.89
2018-09-29T00:23:28.304Z,67.82
2018-09-29T00:28:22.752Z,67.36
2018-09-29T00:33:17.282Z,67.59
2018-09-29T00:38:11.772Z,67.89
2018-09-29T00:43:06.460Z,67.81
2018-09-29T00:48:00.977Z,67.68
2018-09-29T00:52:55.497Z,68.28
2018-09-29T00:57:50.021Z,69.07
2018-09-29T01:02:44.469Z,68.42
2018-09-29T01:07:38.958Z,69.67
2018-09-29T01:12:33.511Z,69.51
2018-09-29T01:17:28.141Z,69.25
2018-09-29T01:22:22.720Z,69.55
2018-09-29T01:27:17.193Z,70.25
2018-09-29T01:32:11.681Z,70.86
2018-09-29T01:37:06.190Z,71.14
2018-09-29T01:42:00.660Z,71.54
2018-09-29T01:46:55.204Z,71.43
2018-09-29T01:51:49.688Z,71.10
2018-09-29T01:56:44.193Z,71.54
2018-09-29T02:01:38.729Z,71.04
2018-09-29T02:06:33.186Z,71.70
2018-09-29T02:11:27.664Z,71.73
2018-09-29T02:16:22.152Z,72.04
2018-09-29T02:21:16.664Z,71.99
2018-09-29T02:26:11.220Z,72.51
2018-09-29T02:31:05.829Z,72.27
2018-09-29T02:36:00.404Z,72.23
2018-09-29T02:40:54.882Z,71.76
2018-09-29T02:45:49.502Z,72.95
2018-09-29T02:50:44.052Z,71.79
2018-09-29T02:55:38.522Z,71.40
2018-09-29T03:00:32.961Z,70.99
2018-09-29T03:05:27.511Z,72.09
2018-09-29T03:10:22.068Z,71.74
2018-09-29T03:15:16.601Z,71.64
2018-09-29T03:20:11.242Z,71.72
2018-09-29T03:25:05.735Z,71.67
2018-09-29T03:30:00.206Z,71.89
2018-09-29T03:34:54.694Z,71.74
2018-09-29T03:39:49.169Z,70.91
2018-09-29T03:44:43.749Z,70.91
2018-09-29T03:49:38.300Z,70.02
2018-09-29T03:54:32.836Z,69.88
2018-09-29T03:59:27.580Z,69.76
2018-09-29T04:04:22.726Z,69.11
2018-09-29T04:09:17.326Z,68.93
2018-09-29T04:14:11.953Z,68.66
2018-09-29T04:19:06.802Z,69.15
2018-09-29T04:24:01.389Z,68.87
2018-09-29T04:28:55.897Z,68.99
2018-09-29T04:33:50.421Z,68.39
2018-09-29T04:38:44.922Z,68.24
2018-09-29T04:43:39.436Z,69.07
2018-09-29T04:48:33.976Z,69.42
2018-09-29T04:53:28.476Z,68.51
2018-09-29T04:58:23.090Z,68.88
2018-09-29T05:03:17.699Z,69.56
2018-09-29T05:08:12.192Z,69.95
2018-09-29T05:13:06.728Z,69.50
2018-09-29T05:18:01.253Z,69.69
2018-09-29T05:22:55.949Z,70.45
2018-09-29T05:27:50.600Z,70.25
2018-09-29T05:32:45.078Z,70.20
2018-09-29T05:37:39.549Z,70.17
2018-09-29T05:42:34.089Z,69.81
2018-09-29T05:47:28.703Z,68.68
2018-09-29T05:52:23.226Z,68.47
2018-09-29T05:57:17.765Z,68.09
2018-09-29T06:02:12.300Z,67.68
2018-09-29T06:07:07.117Z,66.15
2018-09-29T06:12:01.754Z,65.91
2018-09-29T06:16:56.289Z,65.77
2018-09-29T06:21:50.925Z,65.51
2018-09-29T06:26:45.633Z,66.36
2018-09-29T06:31:40.140Z,66.43
2018-09-29T06:36:34.812Z,65.86
2018-09-29T06:41:29.425Z,66.12
2018-09-29T06:46:23.990Z,66.04
2018-09-29T06:51:18.688Z,65.88
2018-09-29T06:56:13.160Z,65.97
2018-09-29T07:01:07.777Z,65.19
2018-09-29T07:06:02.613Z,65.57
2018-09-29T07:10:57.220Z,64.94
2018-09-29T07:15:53.255Z,65.63
2018-09-29T07:20:47.859Z,65.22
2018-09-29T07:25:42.560Z,64.05
2018-09-29T07:30:37.192Z,64.39
2018-09-29T07:35:31.725Z,64.48
2018-09-29T07:40:26.436Z,63.94
2018-09-29T07:45:21.032Z,63.59
2018-09-29T07:50:15.837Z,63.17
2018-09-29T07:55:10.415Z,63.34
2018-09-29T08:00:05.420Z,63.20
2018-09-29T08:05:00.020Z,62.90
2018-09-29T08:09:55.010Z,62.20
2018-09-29T08:14:49.502Z,61.38
2018-09-29T08:19:44.065Z,61.30
2018-09-29T08:24:39.128Z,61.60
2018-09-29T08:29:37.971Z,61.57
2018-09-29T08:34:34.752Z,61.24
2018-09-29T08:39:30.400Z,60.25
2018-09-29T08:44:25.066Z,60.55
2018-09-29T08:49:20.173Z,59.32
2018-09-29T08:54:14.708Z,59.47
2018-09-29T08:59:09.334Z,59.77
2018-09-29T09:04:05.327Z,59.17
2018-09-29T09:08:59.897Z,58.24
2018-09-29T09:13:54.520Z,58.20
2018-09-29T09:18:49.218Z,57.24
2018-09-29T09:23:51.479Z,57.44
2018-09-29T09:28:46.972Z,57.02
2018-09-29T09:33:41.516Z,57.26
2018-09-29T09:38:36.608Z,57.33
2018-09-29T09:43:31.338Z,57.20
2018-09-29T09:48:26.255Z,56.47
2018-09-29T09:53:21.641Z,57.98
2018-09-29T09:58:16.247Z,56.91
2018-09-29T10:03:16.923Z,56.68
2018-09-29T10:08:12.367Z,57.05
2018-09-29T10:13:07.111Z,56.95
2018-09-29T10:18:02.054Z,56.79
2018-09-29T10:22:57.457Z,57.22
2018-09-29T10:27:52.129Z,57.15
2018-09-29T10:32:47.077Z,57.36
2018-09-29T10:37:42.986Z,56.13
2018-09-29T10:42:37.640Z,55.66
2018-09-29T10:47:32.976Z,55.91
2018-09-29T10:52:28.236Z,55.38
2018-09-29T10:57:23.369Z,55.91
2018-09-29T11:02:18.767Z,55.25
2018-09-29T11:07:13.456Z,54.23
2018-09-29T11:12:08.100Z,53.97
2018-09-29T11:17:02.899Z,54.21
2018-09-29T11:21:57.692Z,55.12
2018-09-29T11:26:52.658Z,54.58
2018-09-29T11:31:47.469Z,54.90
2018-09-29T11:36:42.635Z,53.42
2018-09-29T11:41:38.424Z,54.07
2018-09-29T11:46:33.062Z,53.71
2018-09-29T11:51:28.397Z,53.89
2018-09-29T11:56:23.264Z,53.71
2018-09-29T12:01:17.736Z,53.49
2018-09-29T12:06:12.991Z,53.91
2018-09-29T12:11:07.736Z,53.98
2018-09-29T12:16:02.315Z,54.01
2018-09-29T12:20:56.960Z,53.55
2018-09-29T12:25:51.611Z,52.93
2018-09-29T12:30:46.224Z,52.07
2018-09-29T12:35:40.829Z,52.37
2018-09-29T12:40:35.276Z,52.75
2018-09-29T12:45:30.586Z,51.45
2018-09-29T12:50:25.184Z,51.53
2018-09-29T12:55:19.737Z,51.74
2018-09-29T13:00:14.368Z,50.93
2018-09-29T13:05:09.140Z,50.83
2018-09-29T13:10:03.947Z,51.76
2018-09-29T13:14:58.511Z,51.01
2018-09-29T13:19:53.025Z,51.97
2018-09-29T13:24:47.622Z,51.31
2018-09-29T13:29:42.330Z,50.95
2018-09-29T13:34:37.016Z,51.16
2018-09-29T13:39:32.073Z,51.08
2018-09-29T13:44:26.716Z,50.72
2018-09-29T13:49:21.265Z,51.20
2018-09-29T13:54:16.397Z,51.02
2018-09-29T13:59:10.944Z,50.62
2018-09-29T14:04:05.549Z,50.44
2018-09-29T14:09:00.114Z,51.07
2018-09-29T14:13:54.640Z,50.80
2018-09-29T14:18:49.169Z,50.94
2018-09-29T14:23:43.618Z,51.49
2018-09-29T14:28:38.154Z,51.74
2018-09-29T14:33:32.752Z,50.81
2018-09-29T14:38:27.313Z,50.86
2018-09-29T14:43:22.448Z,51.23
2018-09-29T14:48:17.078Z,51.44
2018-09-29T14:53:11.604Z,50.04
2018-09-29T14:58:06.195Z,51.01
2018-09-29T15:03:00.832Z,50.91
2018-09-29T15:07:55.360Z,51.02
2018-09-29T15:12:49.876Z,51.96
2018-09-29T15:17:44.608Z,51.95
2018-09-29T15:22:39.738Z,52.14
2018-09-29T15:27:34.270Z,51.75
2018-09-29T15:32:28.796Z,53.00
2018-09-29T15:37:23.370Z,53.33
2018-09-29T15:42:18.271Z,52.78
2018-09-29T15:47:12.778Z,53.37
2018-09-29T15:52:07.584Z,53.73
2018-09-29T15:57:02.298Z,53.98
2018-09-29T16:01:57.009Z,54.10
2018-09-29T16:06:51.662Z,54.01
2018-09-29T16:11:46.834Z,54.02
2018-09-29T16:16:41.428Z,54.96
2018-09-29T16:21:36.859Z,54.61
2018-09-29T16:26:31.466Z,54.90
2018-09-29T16:31:26.095Z,55.34
2018-09-29T16:36:21.048Z,55.70
2018-09-29T16:41:15.660Z,55.86
2018-09-29T16:46:10.772Z,56.81
2018-09-29T16:51:05.284Z,57.05
2018-09-29T16:55:59.940Z,57.36
2018-09-29T17:00:55.227Z,57.05
2018-09-29T17:05:49.773Z,57.69
2018-09-29T17:10:44.456Z,57.55
2018-09-29T17:15:38.988Z,57.38
2018-09-29T17:20:33.538Z,58.33
2018-09-29T17:25:28.185Z,58.33
2018-09-29T17:30:22.787Z,58.69
2018-09-29T17:35:17.874Z,58.98
2018-09-29T17:40:12.456Z,58.24
2018-09-29T17:45:07.136Z,58.21
2018-09-29T17:50:01.698Z,58.06
2018-09-29T17:54:56.621Z,59.43
2018-09-29T17:59:51.224Z,58.96
2018-09-29T18:04:45.763Z,59.61
2018-09-29T18:09:40.237Z,59.15
2018-09-29T18:14:34.970Z,59.43
2018-09-29T18:19:29.677Z,59.49
2018-09-29T18:24:24.256Z,59.25
2018-09-29T18:29:18.817Z,59.49
2018-09-29T18:34:13.421Z,59.35
2018-09-29T18:39:10.256Z,59.08
2018-09-29T18:44:04.855Z,59.92
2018-09-29T18:48:59.768Z,59.14
2018-09-29T18:53:54.361Z,59.32
2018-09-29T18:58:48.945Z,59.26
2018-09-29T19:03:43.779Z,59.16
2018-09-29T19:08:38.469Z,59.83
2018-09-29T19:13:33.088Z,59.88
2018-09-29T19:18:27.764Z,59.79
2018-09-29T19:23:22.317Z,59.80
2018-09-29T19:28:16.823Z,60.00
2018-09-29T19:33:11.428Z,59.94
2018-09-29T19:38:06.069Z,60.66
2018-09-29T19:43:00.665Z,60.62
2018-09-29T19:47:55.157Z,60.54
2018-09-29T19:52:49.750Z,60.70
2018-09-29T19:57:44.370Z,61.02
2018-09-29T20:02:39.148Z,60.01
2018-09-29T20:07:33.653Z,60.97
2018-09-29T20:12:28.273Z,61.09
2018-09-29T20:17:22.778Z,60.76
2018-09-29T20:22:17.320Z,61.44
2018-09-29T20:27:11.932Z,61.78
2018-09-29T20:32:06.417Z,61.77
2018-09-29T20:37:01.188Z,62.42
2018-09-29T20:41:55.710Z,62.84
2018-09-29T20:46:50.348Z,62.53
2018-09-29T20:51:45.881Z,63.76
2018-09-29T20:56:40.546Z,63.57
2018-09-29T21:01:35.126Z,63.12
2018-09-29T21:06:29.653Z,62.99
2018-09-29T21:11:24.155Z,63.80
2018-09-29T21:16:18.680Z,64.26
2018-09-29T21:21:13.199Z,63.95
2018-09-29T21:26:07.825Z,63.77
2018-09-29T21:31:02.296Z,63.80
2018-09-29T21:35:56.805Z,64.94
2018-09-29T21:40:51.426Z,64.35
2018-09-29T21:45:45.978Z,64.31
2018-09-29T21:50:40.490Z,65.53
2018-09-29T21:55:34.960Z,65.84
2018-09-29T22:00:34.804Z,67.68
2018-09-29T22:05:29.312Z,69.01
2018-09-29T22:10:23.874Z,69.00
2018-09-29T22:15:18.528Z,69.58
2018-09-29T22:20:13.275Z,69.89
2018-09-29T22:25:08.230Z,69.98
2018-09-29T22:30:02.933Z,71.01
2018-09-29T22:34:57.672Z,70.93
2018-09-29T22:39:52.236Z,71.69
2018-09-29T22:44:46.845Z,71.98
2018-09-29T22:49:41.543Z,72.66
2018-09-29T22:54:36.323Z,72.91
2018-09-29T22:59:31.189Z,73.05
2018-09-29T23:04:25.925Z,73.42
2018-09-29T23:09:20.680Z,73.74
2018-09-29T23:14:15.260Z,73.35
2018-09-29T23:19:09.962Z,73.43
2018-09-29T23:24:04.416Z,72.52
2018-09-29T23:28:59.088Z,72.75
2018-09-29T23:33:53.767Z,73.62
2018-09-29T23:38:48.375Z,74.31
2018-09-29T23:43:43.008Z,74.52
2018-09-29T23:48:37.557Z,74.76
2018-09-29T23:53:32.210Z,74.46
2018-09-29T23:58:26.896Z,74.66
